logo dgac
Viernes 14 de Agosto del 2020
Buscar por aerodromo o helipuerto
Ingrese nombre de aeródromo, localidad o designador OACI:

Aeródromo: Cañal Bajo - Carlos Hott Siebert (PUB) (SCJO)

Ubicación: Osorno, X Región, Chile (40º 36' 41'' S, 73º 03' 38'' W) Ver ubicación en el mapa

Pistas

Orientación Dimensión Pendiente Superficie Resistencia APCH THR RWY PAPI
15/33 1950 x 45 0,02 ASPH PCN 40 F/C/W/T
15/33 782 x 19 PASTO 5700 KG No No No No
Horas de operación HJ
Elevación 57 m / 187 ft
Otra Información Adm : D.G.A.C.
Uso : PUB
Ubicado a 7 km SE de Osorno
TEL 642232529 / 224392865

Cámara de Aeródromos www.dgac.gob.cl

Otra información ver AIP-Chile Volumen I AD 3.9-14.1-O

CCCM/FCCV Descargar
andera de Chile
Mapa de Cañal Bajo - Carlos Hott Siebert (PUB) (SCJO)

Último METAR

METAR SCJO 140200Z AUTO 25004KT 200V290 9999 SCT050/// BKN099/// OVC150/// 07/05 Q1011

Último TAF

TAF SCJO 131043Z 1312/1324 35007KT 9999 -RA SCT020 OVC030 TN08/1312Z TX10/1317Z BECMG 1319/1321 23005KT

Últimas fotos cámaras

Imagen aerodromo Cañal Bajo - Carlos Hott Siebert (PUB) (SCJO) N-Oeste tomada el 13-08-2020 01:34:42 Imagen aerodromo Cañal Bajo - Carlos Hott Siebert (PUB) (SCJO) Sur tomada el 14-08-2020 02:17:50

Último NOTAM

C3338/20 NOTAMR C2068/20 Q)SCTZ/QLPAU/IV/BO/A/000/999/4037S07304W005 A)SCJO B)2008041259 C)2011042100 E)PAPI RWY 33 NO AVBL PARA LOS ATS